sensor_id;sensor_type;location;lat;lon;timestamp;temperature;humidity
3208;DHT22;1616;52.394;9.756;2022-12-16T00:00:32;-4.00;1.00
3208;DHT22;1616;52.394;9.756;2022-12-16T00:02:59;-4.10;1.00
3208;DHT22;1616;52.394;9.756;2022-12-16T00:05:27;-4.10;1.00
3208;DHT22;1616;52.394;9.756;2022-12-16T00:07:52;-4.10;1.00
3208;DHT22;1616;52.394;9.756;2022-12-16T00:10:20;-4.20;1.00
3208;DHT22;1616;52.394;9.756;2022-12-16T00:12:46;-4.20;1.00
3208;DHT22;1616;52.394;9.756;2022-12-16T00:15:12;-4.30;1.00
3208;DHT22;1616;52.394;9.756;2022-12-16T00:17:37;-4.30;1.00
3208;DHT22;1616;52.394;9.756;2022-12-16T00:20:05;-4.30;1.00
3208;DHT22;1616;52.394;9.756;2022-12-16T00:22:32;-4.30;1.00
3208;DHT22;1616;52.394;9.756;2022-12-16T00:24:58;-4.30;1.00
3208;DHT22;1616;52.394;9.756;2022-12-16T00:27:24;-4.40;1.00
3208;DHT22;1616;52.394;9.756;2022-12-16T00:29:50;-4.40;1.00
3208;DHT22;1616;52.394;9.756;2022-12-16T00:32:16;-4.40;1.00
3208;DHT22;1616;52.394;9.756;2022-12-16T00:34:41;-4.40;1.00
3208;DHT22;1616;52.394;9.756;2022-12-16T00:37:07;-4.40;1.00
3208;DHT22;1616;52.394;9.756;2022-12-16T00:39:32;-4.40;1.00
3208;DHT22;1616;52.394;9.756;2022-12-16T00:41:58;-4.50;1.00
3208;DHT22;1616;52.394;9.756;2022-12-16T00:44:23;-4.50;1.00
3208;DHT22;1616;52.394;9.756;2022-12-16T00:46:49;-4.50;1.00
3208;DHT22;1616;52.394;9.756;2022-12-16T00:49:14;-4.60;1.00
3208;DHT22;1616;52.394;9.756;2022-12-16T00:51:40;-4.60;1.00
3208;DHT22;1616;52.394;9.756;2022-12-16T00:54:06;-4.60;1.00
3208;DHT22;1616;52.394;9.756;2022-12-16T00:56:31;-4.60;1.00
3208;DHT22;1616;52.394;9.756;2022-12-16T00:58:57;-4.60;1.00
3208;DHT22;1616;52.394;9.756;2022-12-16T01:01:23;-4.60;1.00
3208;DHT22;1616;52.394;9.756;2022-12-16T01:03:49;-4.70;1.00
3208;DHT22;1616;52.394;9.756;2022-12-16T01:06:16;-4.70;1.00
3208;DHT22;1616;52.394;9.756;2022-12-16T01:08:43;-4.70;1.00
3208;DHT22;1616;52.394;9.756;2022-12-16T01:11:17;-4.70;1.00
3208;DHT22;1616;52.394;9.756;2022-12-16T01:13:43;-4.70;1.00
3208;DHT22;1616;52.394;9.756;2022-12-16T01:16:09;-4.80;1.00
3208;DHT22;1616;52.394;9.756;2022-12-16T01:18:35;-4.80;1.00
3208;DHT22;1616;52.394;9.756;2022-12-16T01:21:06;-4.80;1.00
3208;DHT22;1616;52.394;9.756;2022-12-16T01:23:33;-4.90;1.00
3208;DHT22;1616;52.394;9.756;2022-12-16T01:26:00;-4.90;1.00
3208;DHT22;1616;52.394;9.756;2022-12-16T01:28:29;-4.90;1.00
3208;DHT22;1616;52.394;9.756;2022-12-16T01:30:59;-5.00;1.00
3208;DHT22;1616;52.394;9.756;2022-12-16T01:33:30;-5.00;1.00
3208;DHT22;1616;52.394;9.756;2022-12-16T01:36:05;-5.00;1.00
3208;DHT22;1616;52.394;9.756;2022-12-16T01:38:31;-5.00;1.00
3208;DHT22;1616;52.394;9.756;2022-12-16T01:40:57;-5.00;1.00
3208;DHT22;1616;52.394;9.756;2022-12-16T01:43:29;-5.10;1.00
3208;DHT22;1616;52.394;9.756;2022-12-16T01:46:06;-5.10;1.00
3208;DHT22;1616;52.394;9.756;2022-12-16T01:51:24;-5.20;1.00
3208;DHT22;1616;52.394;9.756;2022-12-16T01:53:56;-5.10;1.00
3208;DHT22;1616;52.394;9.756;2022-12-16T01:56:26;-5.20;1.00
3208;DHT22;1616;52.394;9.756;2022-12-16T01:58:54;-5.20;1.00
3208;DHT22;1616;52.394;9.756;2022-12-16T02:01:20;-5.20;1.00
3208;DHT22;1616;52.394;9.756;2022-12-16T02:03:46;-5.20;1.00
3208;DHT22;1616;52.394;9.756;2022-12-16T02:06:13;-5.20;1.00
3208;DHT22;1616;52.394;9.756;2022-12-16T02:08:39;-5.20;1.00
3208;DHT22;1616;52.394;9.756;2022-12-16T02:13:47;-5.20;1.00
3208;DHT22;1616;52.394;9.756;2022-12-16T02:16:31;-5.20;1.00
3208;DHT22;1616;52.394;9.756;2022-12-16T02:27:04;-5.20;1.00
3208;DHT22;1616;52.394;9.756;2022-12-16T02:30:03;-5.20;1.00
3208;DHT22;1616;52.394;9.756;2022-12-16T02:35:53;-5.20;1.00
3208;DHT22;1616;52.394;9.756;2022-12-16T02:41:20;-5.20;1.00
3208;DHT22;1616;52.394;9.756;2022-12-16T02:44:02;-5.20;1.00
3208;DHT22;1616;52.394;9.756;2022-12-16T02:46:31;-5.20;1.00
3208;DHT22;1616;52.394;9.756;2022-12-16T02:51:39;-5.20;1.00
3208;DHT22;1616;52.394;9.756;2022-12-16T02:54:06;-5.20;1.00
3208;DHT22;1616;52.394;9.756;2022-12-16T02:56:53;-5.20;1.00
3208;DHT22;1616;52.394;9.756;2022-12-16T03:02:18;-5.20;1.00
3208;DHT22;1616;52.394;9.756;2022-12-16T03:04:48;-5.20;1.00
3208;DHT22;1616;52.394;9.756;2022-12-16T03:07:17;-5.20;1.00
3208;DHT22;1616;52.394;9.756;2022-12-16T03:09:45;-5.20;1.00
3208;DHT22;1616;52.394;9.756;2022-12-16T03:12:14;-5.20;1.00
3208;DHT22;1616;52.394;9.756;2022-12-16T03:14:44;-5.30;1.00
3208;DHT22;1616;52.394;9.756;2022-12-16T03:17:12;-5.30;1.00
3208;DHT22;1616;52.394;9.756;2022-12-16T03:19:42;-5.30;1.00
3208;DHT22;1616;52.394;9.756;2022-12-16T03:22:20;-5.30;1.00
3208;DHT22;1616;52.394;9.756;2022-12-16T03:24:48;-5.30;1.00
3208;DHT22;1616;52.394;9.756;2022-12-16T03:27:23;-5.30;1.00
3208;DHT22;1616;52.394;9.756;2022-12-16T03:30:15;-5.30;1.00
3208;DHT22;1616;52.394;9.756;2022-12-16T03:32:50;-5.40;1.00
3208;DHT22;1616;52.394;9.756;2022-12-16T03:37:54;-5.40;1.00
3208;DHT22;1616;52.394;9.756;2022-12-16T03:40:22;-5.40;1.00
3208;DHT22;1616;52.394;9.756;2022-12-16T03:42:51;-5.50;1.00
3208;DHT22;1616;52.394;9.756;2022-12-16T03:45:22;-5.50;1.00
3208;DHT22;1616;52.394;9.756;2022-12-16T03:47:52;-5.50;1.00
3208;DHT22;1616;52.394;9.756;2022-12-16T03:50:26;-5.50;1.00
3208;DHT22;1616;52.394;9.756;2022-12-16T03:52:52;-5.50;1.00
3208;DHT22;1616;52.394;9.756;2022-12-16T03:55:18;-5.60;1.00
3208;DHT22;1616;52.394;9.756;2022-12-16T03:57:44;-5.60;1.00
3208;DHT22;1616;52.394;9.756;2022-12-16T04:00:10;-5.60;1.00
3208;DHT22;1616;52.394;9.756;2022-12-16T04:02:36;-5.60;1.00
3208;DHT22;1616;52.394;9.756;2022-12-16T04:05:02;-5.60;1.00
3208;DHT22;1616;52.394;9.756;2022-12-16T04:07:27;-5.70;1.00
3208;DHT22;1616;52.394;9.756;2022-12-16T04:09:53;-5.60;1.00
3208;DHT22;1616;52.394;9.756;2022-12-16T04:12:19;-5.60;1.00
3208;DHT22;1616;52.394;9.756;2022-12-16T04:15:05;-5.60;1.00
3208;DHT22;1616;52.394;9.756;2022-12-16T04:17:50;-5.60;1.00
3208;DHT22;1616;52.394;9.756;2022-12-16T04:20:41;-5.60;1.00
3208;DHT22;1616;52.394;9.756;2022-12-16T04:23:28;-5.60;1.00
3208;DHT22;1616;52.394;9.756;2022-12-16T04:26:14;-5.70;1.00
3208;DHT22;1616;52.394;9.756;2022-12-16T04:28:40;-5.70;1.00
3208;DHT22;1616;52.394;9.756;2022-12-16T04:31:06;-5.70;1.00
3208;DHT22;1616;52.394;9.756;2022-12-16T04:33:32;-5.70;1.00
3208;DHT22;1616;52.394;9.756;2022-12-16T04:36:18;-5.80;1.00
3208;DHT22;1616;52.394;9.756;2022-12-16T04:39:03;-5.90;1.00
3208;DHT22;1616;52.394;9.756;2022-12-16T04:41:54;-5.90;1.00
3208;DHT22;1616;52.394;9.756;2022-12-16T04:44:38;-5.90;1.00
3208;DHT22;1616;52.394;9.756;2022-12-16T04:47:23;-5.90;1.00
3208;DHT22;1616;52.394;9.756;2022-12-16T04:50:08;-5.90;1.00
3208;DHT22;1616;52.394;9.756;2022-12-16T04:52:53;-6.00;1.00
3208;DHT22;1616;52.394;9.756;2022-12-16T04:55:37;-5.90;1.00
3208;DHT22;1616;52.394;9.756;2022-12-16T04:58:22;-6.10;1.00
3208;DHT22;1616;52.394;9.756;2022-12-16T05:01:07;-6.00;1.00
3208;DHT22;1616;52.394;9.756;2022-12-16T05:03:51;-6.00;1.00
3208;DHT22;1616;52.394;9.756;2022-12-16T05:06:35;-6.00;1.00
3208;DHT22;1616;52.394;9.756;2022-12-16T05:09:19;-6.00;1.00
3208;DHT22;1616;52.394;9.756;2022-12-16T05:12:04;-6.00;1.00
3208;DHT22;1616;52.394;9.756;2022-12-16T05:14:48;-6.10;1.00
3208;DHT22;1616;52.394;9.756;2022-12-16T05:17:33;-6.10;1.00
3208;DHT22;1616;52.394;9.756;2022-12-16T05:20:17;-6.00;1.00
3208;DHT22;1616;52.394;9.756;2022-12-16T05:23:01;-6.00;1.00
3208;DHT22;1616;52.394;9.756;2022-12-16T05:25:46;-6.00;1.00
3208;DHT22;1616;52.394;9.756;2022-12-16T05:28:30;-6.00;1.00
3208;DHT22;1616;52.394;9.756;2022-12-16T05:31:14;-6.00;1.00
3208;DHT22;1616;52.394;9.756;2022-12-16T05:34:00;-6.00;1.00
3208;DHT22;1616;52.394;9.756;2022-12-16T05:36:44;-6.00;1.00
3208;DHT22;1616;52.394;9.756;2022-12-16T05:39:29;-6.10;1.00
3208;DHT22;1616;52.394;9.756;2022-12-16T05:42:13;-6.10;1.00
3208;DHT22;1616;52.394;9.756;2022-12-16T05:44:58;-6.10;1.00
3208;DHT22;1616;52.394;9.756;2022-12-16T05:47:42;-6.10;1.00
3208;DHT22;1616;52.394;9.756;2022-12-16T05:50:26;-6.10;1.00
3208;DHT22;1616;52.394;9.756;2022-12-16T05:53:10;-6.10;1.00
3208;DHT22;1616;52.394;9.756;2022-12-16T05:55:55;-6.10;1.00
3208;DHT22;1616;52.394;9.756;2022-12-16T05:58:39;-6.10;1.00
3208;DHT22;1616;52.394;9.756;2022-12-16T06:01:24;-6.10;1.00
3208;DHT22;1616;52.394;9.756;2022-12-16T06:04:09;-6.10;1.00
3208;DHT22;1616;52.394;9.756;2022-12-16T06:06:53;-6.10;1.00
3208;DHT22;1616;52.394;9.756;2022-12-16T06:09:37;-6.10;1.00
3208;DHT22;1616;52.394;9.756;2022-12-16T06:12:22;-6.10;1.00
3208;DHT22;1616;52.394;9.756;2022-12-16T06:15:08;-6.00;1.00
3208;DHT22;1616;52.394;9.756;2022-12-16T06:17:52;-6.00;1.00
3208;DHT22;1616;52.394;9.756;2022-12-16T06:20:37;-6.00;1.00
3208;DHT22;1616;52.394;9.756;2022-12-16T06:23:21;-5.90;1.00
3208;DHT22;1616;52.394;9.756;2022-12-16T06:26:05;-5.90;1.00
3208;DHT22;1616;52.394;9.756;2022-12-16T06:28:50;-6.00;1.00
3208;DHT22;1616;52.394;9.756;2022-12-16T06:31:35;-6.00;1.00
3208;DHT22;1616;52.394;9.756;2022-12-16T06:34:19;-6.00;1.00
3208;DHT22;1616;52.394;9.756;2022-12-16T06:37:04;-6.00;1.00
3208;DHT22;1616;52.394;9.756;2022-12-16T06:39:48;-6.00;1.00
3208;DHT22;1616;52.394;9.756;2022-12-16T06:42:33;-6.00;1.00
3208;DHT22;1616;52.394;9.756;2022-12-16T06:45:18;-6.10;1.00
3208;DHT22;1616;52.394;9.756;2022-12-16T06:48:02;-6.10;1.00
3208;DHT22;1616;52.394;9.756;2022-12-16T06:50:47;-6.10;1.00
3208;DHT22;1616;52.394;9.756;2022-12-16T06:53:32;-6.10;1.00
3208;DHT22;1616;52.394;9.756;2022-12-16T06:56:16;-6.10;1.00
3208;DHT22;1616;52.394;9.756;2022-12-16T06:59:00;-6.10;1.00
3208;DHT22;1616;52.394;9.756;2022-12-16T07:01:45;-6.10;1.00
3208;DHT22;1616;52.394;9.756;2022-12-16T07:04:29;-6.10;1.00
3208;DHT22;1616;52.394;9.756;2022-12-16T07:07:14;-6.10;1.00
3208;DHT22;1616;52.394;9.756;2022-12-16T07:09:58;-6.00;1.00
3208;DHT22;1616;52.394;9.756;2022-12-16T07:12:42;-6.00;1.00
3208;DHT22;1616;52.394;9.756;2022-12-16T07:15:26;-5.90;1.00
3208;DHT22;1616;52.394;9.756;2022-12-16T07:18:11;-5.90;1.00
3208;DHT22;1616;52.394;9.756;2022-12-16T07:20:55;-5.80;1.00
3208;DHT22;1616;52.394;9.756;2022-12-16T07:23:39;-5.60;1.00
3208;DHT22;1616;52.394;9.756;2022-12-16T07:26:25;-5.50;1.00
3208;DHT22;1616;52.394;9.756;2022-12-16T07:29:09;-5.40;1.00
3208;DHT22;1616;52.394;9.756;2022-12-16T07:31:54;-5.30;1.00
3208;DHT22;1616;52.394;9.756;2022-12-16T07:34:39;-5.20;1.00
3208;DHT22;1616;52.394;9.756;2022-12-16T07:37:23;-5.10;1.00
3208;DHT22;1616;52.394;9.756;2022-12-16T07:40:08;-5.10;1.00
3208;DHT22;1616;52.394;9.756;2022-12-16T07:42:52;-4.90;1.00
3208;DHT22;1616;52.394;9.756;2022-12-16T07:45:38;-4.80;1.00
3208;DHT22;1616;52.394;9.756;2022-12-16T07:48:24;-4.70;1.00
3208;DHT22;1616;52.394;9.756;2022-12-16T07:51:08;-4.70;1.00
3208;DHT22;1616;52.394;9.756;2022-12-16T07:53:53;-4.60;1.00
3208;DHT22;1616;52.394;9.756;2022-12-16T07:56:37;-4.50;1.00
3208;DHT22;1616;52.394;9.756;2022-12-16T07:59:21;-4.40;1.00
3208;DHT22;1616;52.394;9.756;2022-12-16T08:02:08;-4.30;1.00
3208;DHT22;1616;52.394;9.756;2022-12-16T08:04:53;-4.30;1.00
3208;DHT22;1616;52.394;9.756;2022-12-16T08:07:41;-4.20;1.00
3208;DHT22;1616;52.394;9.756;2022-12-16T08:10:26;-4.20;1.00
3208;DHT22;1616;52.394;9.756;2022-12-16T08:13:10;-4.10;1.00
3208;DHT22;1616;52.394;9.756;2022-12-16T08:15:55;-4.20;1.00
3208;DHT22;1616;52.394;9.756;2022-12-16T08:18:39;-4.20;1.00
3208;DHT22;1616;52.394;9.756;2022-12-16T08:21:24;-4.20;1.00
3208;DHT22;1616;52.394;9.756;2022-12-16T08:24:08;-4.20;1.00
3208;DHT22;1616;52.394;9.756;2022-12-16T08:26:53;-4.10;1.00
3208;DHT22;1616;52.394;9.756;2022-12-16T08:29:37;-4.10;1.00
3208;DHT22;1616;52.394;9.756;2022-12-16T08:32:32;-4.10;1.00
3208;DHT22;1616;52.394;9.756;2022-12-16T08:35:16;-4.00;1.00
3208;DHT22;1616;52.394;9.756;2022-12-16T08:38:00;-4.00;1.00
3208;DHT22;1616;52.394;9.756;2022-12-16T08:40:45;-4.00;1.00
3208;DHT22;1616;52.394;9.756;2022-12-16T08:43:31;-3.90;1.00
3208;DHT22;1616;52.394;9.756;2022-12-16T08:46:15;-3.80;1.00
3208;DHT22;1616;52.394;9.756;2022-12-16T08:49:00;-3.60;1.00
3208;DHT22;1616;52.394;9.756;2022-12-16T08:51:45;-3.50;1.00
3208;DHT22;1616;52.394;9.756;2022-12-16T08:54:30;-3.40;1.00
3208;DHT22;1616;52.394;9.756;2022-12-16T08:57:14;-3.20;1.00
3208;DHT22;1616;52.394;9.756;2022-12-16T08:59:58;-3.00;1.00
3208;DHT22;1616;52.394;9.756;2022-12-16T09:02:42;-2.90;1.00
3208;DHT22;1616;52.394;9.756;2022-12-16T09:05:27;-2.90;1.00
3208;DHT22;1616;52.394;9.756;2022-12-16T09:08:11;-2.70;1.00
3208;DHT22;1616;52.394;9.756;2022-12-16T09:11:00;-2.60;1.00
3208;DHT22;1616;52.394;9.756;2022-12-16T09:13:44;-2.40;1.00
3208;DHT22;1616;52.394;9.756;2022-12-16T09:16:29;-2.30;1.00
3208;DHT22;1616;52.394;9.756;2022-12-16T09:19:13;-2.20;1.00
3208;DHT22;1616;52.394;9.756;2022-12-16T09:21:58;-2.10;1.00
3208;DHT22;1616;52.394;9.756;2022-12-16T09:24:42;-2.00;1.00
3208;DHT22;1616;52.394;9.756;2022-12-16T09:27:26;-1.90;1.00
3208;DHT22;1616;52.394;9.756;2022-12-16T09:30:11;-1.80;1.00
3208;DHT22;1616;52.394;9.756;2022-12-16T09:32:55;-1.70;1.00
3208;DHT22;1616;52.394;9.756;2022-12-16T09:35:40;-1.70;1.00
3208;DHT22;1616;52.394;9.756;2022-12-16T09:38:24;-1.60;1.00
3208;DHT22;1616;52.394;9.756;2022-12-16T09:41:30;-1.50;1.00
3208;DHT22;1616;52.394;9.756;2022-12-16T09:50:31;-1.10;1.00
3208;DHT22;1616;52.394;9.756;2022-12-16T09:53:21;-1.00;1.00
3208;DHT22;1616;52.394;9.756;2022-12-16T09:56:14;-0.90;1.00
3208;DHT22;1616;52.394;9.756;2022-12-16T09:59:01;-0.70;1.00
3208;DHT22;1616;52.394;9.756;2022-12-16T10:01:49;-0.60;1.00
3208;DHT22;1616;52.394;9.756;2022-12-16T10:04:34;-0.50;1.00
3208;DHT22;1616;52.394;9.756;2022-12-16T10:07:22;-0.30;1.00
3208;DHT22;1616;52.394;9.756;2022-12-16T10:10:28;-0.20;1.00
3208;DHT22;1616;52.394;9.756;2022-12-16T10:13:31;0.00;1.00
3208;DHT22;1616;52.394;9.756;2022-12-16T10:22:38;0.40;1.00
3208;DHT22;1616;52.394;9.756;2022-12-16T10:25:48;0.50;1.00
3208;DHT22;1616;52.394;9.756;2022-12-16T10:31:50;0.60;1.00
3208;DHT22;1616;52.394;9.756;2022-12-16T10:34:36;0.80;1.00
3208;DHT22;1616;52.394;9.756;2022-12-16T10:37:41;0.80;1.00
3208;DHT22;1616;52.394;9.756;2022-12-16T10:40:29;0.90;1.00
3208;DHT22;1616;52.394;9.756;2022-12-16T10:43:28;0.90;1.00
3208;DHT22;1616;52.394;9.756;2022-12-16T10:46:19;0.90;1.00
3208;DHT22;1616;52.394;9.756;2022-12-16T10:49:04;0.90;1.00
3208;DHT22;1616;52.394;9.756;2022-12-16T10:51:48;1.00;1.00
3208;DHT22;1616;52.394;9.756;2022-12-16T10:54:38;1.20;1.00
3208;DHT22;1616;52.394;9.756;2022-12-16T10:57:57;1.30;1.00
3208;DHT22;1616;52.394;9.756;2022-12-16T11:03:32;1.60;1.00
3208;DHT22;1616;52.394;9.756;2022-12-16T11:06:27;1.90;1.00
3208;DHT22;1616;52.394;9.756;2022-12-16T11:12:28;2.30;1.00
3208;DHT22;1616;52.394;9.756;2022-12-16T11:15:24;2.60;1.00
3208;DHT22;1616;52.394;9.756;2022-12-16T11:18:20;2.90;1.00
3208;DHT22;1616;52.394;9.756;2022-12-16T11:24:11;4.20;1.00
3208;DHT22;1616;52.394;9.756;2022-12-16T11:27:00;4.90;1.00
3208;DHT22;1616;52.394;9.756;2022-12-16T11:32:57;5.90;1.00
3208;DHT22;1616;52.394;9.756;2022-12-16T11:35:53;6.80;1.00
3208;DHT22;1616;52.394;9.756;2022-12-16T11:38:46;7.40;1.00
3208;DHT22;1616;52.394;9.756;2022-12-16T11:41:37;7.80;1.00
3208;DHT22;1616;52.394;9.756;2022-12-16T11:44:43;8.00;1.00
3208;DHT22;1616;52.394;9.756;2022-12-16T11:47:40;8.40;1.00
3208;DHT22;1616;52.394;9.756;2022-12-16T11:50:30;9.00;1.00
3208;DHT22;1616;52.394;9.756;2022-12-16T11:53:27;9.30;1.00
3208;DHT22;1616;52.394;9.756;2022-12-16T11:56:21;9.30;1.00
3208;DHT22;1616;52.394;9.756;2022-12-16T11:59:31;9.20;1.00
3208;DHT22;1616;52.394;9.756;2022-12-16T12:02:25;8.90;1.00
3208;DHT22;1616;52.394;9.756;2022-12-16T12:05:14;8.50;1.00
3208;DHT22;1616;52.394;9.756;2022-12-16T12:08:16;8.10;1.00
3208;DHT22;1616;52.394;9.756;2022-12-16T12:11:28;7.70;1.00
3208;DHT22;1616;52.394;9.756;2022-12-16T12:23:37;5.50;1.00
3208;DHT22;1616;52.394;9.756;2022-12-16T12:26:29;5.10;1.00
3208;DHT22;1616;52.394;9.756;2022-12-16T12:29:27;4.80;1.00
3208;DHT22;1616;52.394;9.756;2022-12-16T12:39:01;4.20;1.00
3208;DHT22;1616;52.394;9.756;2022-12-16T12:47:49;3.70;1.00
3208;DHT22;1616;52.394;9.756;2022-12-16T12:54:25;3.40;1.00
3208;DHT22;1616;52.394;9.756;2022-12-16T12:57:15;3.30;1.00
3208;DHT22;1616;52.394;9.756;2022-12-16T13:00:21;3.20;1.00
3208;DHT22;1616;52.394;9.756;2022-12-16T13:03:36;3.10;1.00
3208;DHT22;1616;52.394;9.756;2022-12-16T13:06:23;3.00;1.00
3208;DHT22;1616;52.394;9.756;2022-12-16T13:09:31;2.90;1.00
3208;DHT22;1616;52.394;9.756;2022-12-16T13:12:20;2.80;1.00
3208;DHT22;1616;52.394;9.756;2022-12-16T13:18:11;2.70;1.00
3208;DHT22;1616;52.394;9.756;2022-12-16T13:20:57;2.60;1.00
3208;DHT22;1616;52.394;9.756;2022-12-16T13:23:45;2.60;1.00
3208;DHT22;1616;52.394;9.756;2022-12-16T13:26:32;2.60;1.00
3208;DHT22;1616;52.394;9.756;2022-12-16T13:29:22;2.50;1.00
3208;DHT22;1616;52.394;9.756;2022-12-16T13:32:17;2.50;1.00
3208;DHT22;1616;52.394;9.756;2022-12-16T13:35:16;2.50;1.00
3208;DHT22;1616;52.394;9.756;2022-12-16T13:38:05;2.40;1.00
3208;DHT22;1616;52.394;9.756;2022-12-16T13:41:04;2.30;1.00
3208;DHT22;1616;52.394;9.756;2022-12-16T13:43:59;2.30;1.00
3208;DHT22;1616;52.394;9.756;2022-12-16T13:46:45;2.20;1.00
3208;DHT22;1616;52.394;9.756;2022-12-16T13:49:41;2.20;1.00
3208;DHT22;1616;52.394;9.756;2022-12-16T13:55:54;2.10;1.00
3208;DHT22;1616;52.394;9.756;2022-12-16T13:58:58;2.10;1.00
3208;DHT22;1616;52.394;9.756;2022-12-16T14:01:48;2.10;1.00
3208;DHT22;1616;52.394;9.756;2022-12-16T14:04:43;2.00;1.00
3208;DHT22;1616;52.394;9.756;2022-12-16T14:07:30;2.00;1.00
3208;DHT22;1616;52.394;9.756;2022-12-16T14:10:38;1.90;1.00
3208;DHT22;1616;52.394;9.756;2022-12-16T14:16:40;1.90;1.00
3208;DHT22;1616;52.394;9.756;2022-12-16T14:20:09;1.80;1.00
3208;DHT22;1616;52.394;9.756;2022-12-16T14:22:59;1.80;1.00
3208;DHT22;1616;52.394;9.756;2022-12-16T14:25:46;1.70;1.00
3208;DHT22;1616;52.394;9.756;2022-12-16T14:28:39;1.70;1.00
3208;DHT22;1616;52.394;9.756;2022-12-16T14:31:29;1.70;1.00
3208;DHT22;1616;52.394;9.756;2022-12-16T14:34:34;1.60;1.00
3208;DHT22;1616;52.394;9.756;2022-12-16T14:37:33;1.60;1.00
3208;DHT22;1616;52.394;9.756;2022-12-16T14:40:20;1.60;1.00
3208;DHT22;1616;52.394;9.756;2022-12-16T14:43:17;1.60;1.00
3208;DHT22;1616;52.394;9.756;2022-12-16T14:46:01;1.50;1.00
3208;DHT22;1616;52.394;9.756;2022-12-16T14:48:47;1.50;1.00
3208;DHT22;1616;52.394;9.756;2022-12-16T14:51:37;1.40;1.00
3208;DHT22;1616;52.394;9.756;2022-12-16T14:54:39;1.40;1.00
3208;DHT22;1616;52.394;9.756;2022-12-16T14:57:30;1.30;1.00
3208;DHT22;1616;52.394;9.756;2022-12-16T15:00:17;1.40;1.00
3208;DHT22;1616;52.394;9.756;2022-12-16T15:03:19;1.30;1.00
3208;DHT22;1616;52.394;9.756;2022-12-16T15:06:21;1.30;1.00
3208;DHT22;1616;52.394;9.756;2022-12-16T15:09:16;1.40;1.00
3208;DHT22;1616;52.394;9.756;2022-12-16T15:12:01;1.20;1.00
3208;DHT22;1616;52.394;9.756;2022-12-16T15:14:46;1.10;1.00
3208;DHT22;1616;52.394;9.756;2022-12-16T15:17:48;1.10;1.00
3208;DHT22;1616;52.394;9.756;2022-12-16T15:20:36;1.00;1.00
3208;DHT22;1616;52.394;9.756;2022-12-16T15:23:30;1.00;1.00
3208;DHT22;1616;52.394;9.756;2022-12-16T15:26:19;1.00;1.00
3208;DHT22;1616;52.394;9.756;2022-12-16T15:29:03;0.90;1.00
3208;DHT22;1616;52.394;9.756;2022-12-16T15:31:49;0.90;1.00
3208;DHT22;1616;52.394;9.756;2022-12-16T15:34:47;0.90;1.00
3208;DHT22;1616;52.394;9.756;2022-12-16T15:37:40;0.90;1.00
3208;DHT22;1616;52.394;9.756;2022-12-16T15:40:30;1.00;1.00
3208;DHT22;1616;52.394;9.756;2022-12-16T15:46:24;1.00;1.00
3208;DHT22;1616;52.394;9.756;2022-12-16T15:58:34;0.90;1.00
3208;DHT22;1616;52.394;9.756;2022-12-16T16:01:26;0.90;1.00
3208;DHT22;1616;52.394;9.756;2022-12-16T16:04:26;0.90;1.00
3208;DHT22;1616;52.394;9.756;2022-12-16T16:07:17;0.90;1.00
3208;DHT22;1616;52.394;9.756;2022-12-16T16:10:22;1.00;1.00
3208;DHT22;1616;52.394;9.756;2022-12-16T16:13:08;0.90;1.00
3208;DHT22;1616;52.394;9.756;2022-12-16T16:15:52;0.90;1.00
3208;DHT22;1616;52.394;9.756;2022-12-16T16:18:37;0.90;1.00
3208;DHT22;1616;52.394;9.756;2022-12-16T16:21:21;0.90;1.00
3208;DHT22;1616;52.394;9.756;2022-12-16T16:24:06;0.90;1.00
3208;DHT22;1616;52.394;9.756;2022-12-16T16:26:52;0.90;1.00
3208;DHT22;1616;52.394;9.756;2022-12-16T16:29:37;0.90;1.00
3208;DHT22;1616;52.394;9.756;2022-12-16T16:32:22;0.90;1.00
3208;DHT22;1616;52.394;9.756;2022-12-16T16:35:06;0.90;1.00
3208;DHT22;1616;52.394;9.756;2022-12-16T16:40:35;0.90;1.00
3208;DHT22;1616;52.394;9.756;2022-12-16T16:43:21;0.90;1.00
3208;DHT22;1616;52.394;9.756;2022-12-16T16:49:17;0.90;1.00
3208;DHT22;1616;52.394;9.756;2022-12-16T16:52:02;0.90;1.00
3208;DHT22;1616;52.394;9.756;2022-12-16T16:54:46;0.80;1.00
3208;DHT22;1616;52.394;9.756;2022-12-16T16:57:33;0.80;1.00
3208;DHT22;1616;52.394;9.756;2022-12-16T17:00:20;0.80;1.00
3208;DHT22;1616;52.394;9.756;2022-12-16T17:03:05;0.80;1.00
3208;DHT22;1616;52.394;9.756;2022-12-16T17:05:49;0.80;1.00
3208;DHT22;1616;52.394;9.756;2022-12-16T17:08:34;0.80;1.00
3208;DHT22;1616;52.394;9.756;2022-12-16T17:11:20;0.80;1.00
3208;DHT22;1616;52.394;9.756;2022-12-16T17:14:07;0.80;1.00
3208;DHT22;1616;52.394;9.756;2022-12-16T17:16:53;0.80;1.00
3208;DHT22;1616;52.394;9.756;2022-12-16T17:19:37;0.80;1.00
3208;DHT22;1616;52.394;9.756;2022-12-16T17:22:22;0.80;1.00
3208;DHT22;1616;52.394;9.756;2022-12-16T17:25:06;0.90;1.00
3208;DHT22;1616;52.394;9.756;2022-12-16T17:27:51;0.90;1.00
3208;DHT22;1616;52.394;9.756;2022-12-16T17:30:35;0.90;1.00
3208;DHT22;1616;52.394;9.756;2022-12-16T17:33:20;0.90;1.00
3208;DHT22;1616;52.394;9.756;2022-12-16T17:36:05;0.90;1.00
3208;DHT22;1616;52.394;9.756;2022-12-16T17:38:49;0.90;1.00
3208;DHT22;1616;52.394;9.756;2022-12-16T17:41:34;1.00;1.00
3208;DHT22;1616;52.394;9.756;2022-12-16T17:44:18;0.80;1.00
3208;DHT22;1616;52.394;9.756;2022-12-16T17:47:04;0.80;1.00
3208;DHT22;1616;52.394;9.756;2022-12-16T17:49:48;0.80;1.00
3208;DHT22;1616;52.394;9.756;2022-12-16T17:52:32;0.80;1.00
3208;DHT22;1616;52.394;9.756;2022-12-16T17:55:17;0.90;1.00
3208;DHT22;1616;52.394;9.756;2022-12-16T17:58:02;0.90;1.00
3208;DHT22;1616;52.394;9.756;2022-12-16T18:00:47;0.90;1.00
3208;DHT22;1616;52.394;9.756;2022-12-16T18:03:31;0.90;1.00
3208;DHT22;1616;52.394;9.756;2022-12-16T18:06:16;0.80;1.00
3208;DHT22;1616;52.394;9.756;2022-12-16T18:09:00;0.90;1.00
3208;DHT22;1616;52.394;9.756;2022-12-16T18:11:45;0.90;1.00
3208;DHT22;1616;52.394;9.756;2022-12-16T18:14:29;0.80;1.00
3208;DHT22;1616;52.394;9.756;2022-12-16T18:17:14;0.80;1.00
3208;DHT22;1616;52.394;9.756;2022-12-16T18:19:58;0.80;1.00
3208;DHT22;1616;52.394;9.756;2022-12-16T18:22:42;0.70;1.00
3208;DHT22;1616;52.394;9.756;2022-12-16T18:25:28;0.70;1.00
3208;DHT22;1616;52.394;9.756;2022-12-16T18:28:13;0.70;1.00
3208;DHT22;1616;52.394;9.756;2022-12-16T18:30:57;0.70;1.00
3208;DHT22;1616;52.394;9.756;2022-12-16T18:33:42;0.70;1.00
3208;DHT22;1616;52.394;9.756;2022-12-16T18:36:26;0.80;1.00
3208;DHT22;1616;52.394;9.756;2022-12-16T18:39:12;0.80;1.00
3208;DHT22;1616;52.394;9.756;2022-12-16T18:41:56;0.80;1.00
3208;DHT22;1616;52.394;9.756;2022-12-16T18:44:41;0.80;1.00
3208;DHT22;1616;52.394;9.756;2022-12-16T18:47:25;0.80;1.00
3208;DHT22;1616;52.394;9.756;2022-12-16T18:50:10;0.90;1.00
3208;DHT22;1616;52.394;9.756;2022-12-16T18:52:54;0.90;1.00
3208;DHT22;1616;52.394;9.756;2022-12-16T18:55:39;0.90;1.00
3208;DHT22;1616;52.394;9.756;2022-12-16T18:58:23;0.90;1.00
3208;DHT22;1616;52.394;9.756;2022-12-16T19:01:09;0.90;1.00
3208;DHT22;1616;52.394;9.756;2022-12-16T19:03:55;0.90;1.00
3208;DHT22;1616;52.394;9.756;2022-12-16T19:06:40;1.00;1.00
3208;DHT22;1616;52.394;9.756;2022-12-16T19:09:24;0.90;1.00
3208;DHT22;1616;52.394;9.756;2022-12-16T19:12:09;1.00;1.00
3208;DHT22;1616;52.394;9.756;2022-12-16T19:14:53;0.90;1.00
3208;DHT22;1616;52.394;9.756;2022-12-16T19:17:38;0.90;1.00
3208;DHT22;1616;52.394;9.756;2022-12-16T19:20:22;0.90;1.00
3208;DHT22;1616;52.394;9.756;2022-12-16T19:23:07;0.90;1.00
3208;DHT22;1616;52.394;9.756;2022-12-16T19:26:00;0.90;1.00
3208;DHT22;1616;52.394;9.756;2022-12-16T19:28:45;0.80;1.00
3208;DHT22;1616;52.394;9.756;2022-12-16T19:31:30;0.80;1.00
3208;DHT22;1616;52.394;9.756;2022-12-16T19:34:14;0.80;1.00
3208;DHT22;1616;52.394;9.756;2022-12-16T19:36:58;0.70;1.00
3208;DHT22;1616;52.394;9.756;2022-12-16T19:39:43;0.70;1.00
3208;DHT22;1616;52.394;9.756;2022-12-16T19:42:27;0.70;1.00
3208;DHT22;1616;52.394;9.756;2022-12-16T19:45:11;0.60;1.00
3208;DHT22;1616;52.394;9.756;2022-12-16T19:48:03;0.60;1.00
3208;DHT22;1616;52.394;9.756;2022-12-16T19:50:48;0.60;1.00
3208;DHT22;1616;52.394;9.756;2022-12-16T19:53:32;0.60;1.00
3208;DHT22;1616;52.394;9.756;2022-12-16T19:56:18;0.60;1.00
3208;DHT22;1616;52.394;9.756;2022-12-16T19:59:02;0.50;1.00
3208;DHT22;1616;52.394;9.756;2022-12-16T20:01:46;0.50;1.00